sensor_id;sensor_type;location;lat;lon;timestamp;temperature;humidity
67769;DHT22;54569;52.018;5.584;2022-12-18T00:01:17;-2.70;84.40
67769;DHT22;54569;52.018;5.584;2022-12-18T00:03:44;-2.70;84.70
67769;DHT22;54569;52.018;5.584;2022-12-18T00:06:10;-2.80;84.10
67769;DHT22;54569;52.018;5.584;2022-12-18T00:08:37;-2.80;83.90
67769;DHT22;54569;52.018;5.584;2022-12-18T00:11:12;-2.80;83.90
67769;DHT22;54569;52.018;5.584;2022-12-18T00:13:38;-2.80;84.00
67769;DHT22;54569;52.018;5.584;2022-12-18T00:16:07;-2.80;83.70
67769;DHT22;54569;52.018;5.584;2022-12-18T00:18:33;-2.80;83.50
67769;DHT22;54569;52.018;5.584;2022-12-18T00:21:01;-2.80;83.60
67769;DHT22;54569;52.018;5.584;2022-12-18T00:23:27;-2.80;82.90
67769;DHT22;54569;52.018;5.584;2022-12-18T00:25:53;-2.80;83.30
67769;DHT22;54569;52.018;5.584;2022-12-18T00:28:18;-2.80;83.60
67769;DHT22;54569;52.018;5.584;2022-12-18T00:30:45;-2.80;83.80
67769;DHT22;54569;52.018;5.584;2022-12-18T00:33:11;-2.80;83.80
67769;DHT22;54569;52.018;5.584;2022-12-18T00:35:37;-2.80;83.80
67769;DHT22;54569;52.018;5.584;2022-12-18T00:38:02;-2.80;83.80
67769;DHT22;54569;52.018;5.584;2022-12-18T00:40:31;-2.80;83.80
67769;DHT22;54569;52.018;5.584;2022-12-18T00:42:57;-2.80;84.10
67769;DHT22;54569;52.018;5.584;2022-12-18T00:45:28;-2.80;84.40
67769;DHT22;54569;52.018;5.584;2022-12-18T00:47:54;-2.80;84.30
67769;DHT22;54569;52.018;5.584;2022-12-18T00:50:22;-2.90;84.60
67769;DHT22;54569;52.018;5.584;2022-12-18T00:52:48;-3.00;84.20
67769;DHT22;54569;52.018;5.584;2022-12-18T00:55:14;-3.00;84.70
67769;DHT22;54569;52.018;5.584;2022-12-18T00:57:40;-3.10;84.90
67769;DHT22;54569;52.018;5.584;2022-12-18T01:00:08;-3.20;84.50
67769;DHT22;54569;52.018;5.584;2022-12-18T01:02:35;-3.20;83.80
67769;DHT22;54569;52.018;5.584;2022-12-18T01:05:01;-3.30;83.60
67769;DHT22;54569;52.018;5.584;2022-12-18T01:07:27;-3.40;83.80
67769;DHT22;54569;52.018;5.584;2022-12-18T01:09:53;-3.40;83.80
67769;DHT22;54569;52.018;5.584;2022-12-18T01:12:19;-3.50;83.80
67769;DHT22;54569;52.018;5.584;2022-12-18T01:14:45;-3.50;84.00
67769;DHT22;54569;52.018;5.584;2022-12-18T01:17:10;-3.60;84.00
67769;DHT22;54569;52.018;5.584;2022-12-18T01:19:36;-3.60;84.10
67769;DHT22;54569;52.018;5.584;2022-12-18T01:22:03;-3.60;84.40
67769;DHT22;54569;52.018;5.584;2022-12-18T01:24:28;-3.60;84.40
67769;DHT22;54569;52.018;5.584;2022-12-18T01:26:54;-3.60;84.90
67769;DHT22;54569;52.018;5.584;2022-12-18T01:29:20;-3.60;85.00
67769;DHT22;54569;52.018;5.584;2022-12-18T01:31:45;-3.70;84.80
67769;DHT22;54569;52.018;5.584;2022-12-18T01:34:11;-3.70;84.70
67769;DHT22;54569;52.018;5.584;2022-12-18T01:36:37;-3.70;85.00
67769;DHT22;54569;52.018;5.584;2022-12-18T01:39:11;-3.70;84.70
67769;DHT22;54569;52.018;5.584;2022-12-18T01:41:37;-3.80;84.60
67769;DHT22;54569;52.018;5.584;2022-12-18T01:50:25;-3.90;84.60
67769;DHT22;54569;52.018;5.584;2022-12-18T01:53:27;-3.90;84.60
67769;DHT22;54569;52.018;5.584;2022-12-18T01:55:49;-4.00;84.80
67769;DHT22;54569;52.018;5.584;2022-12-18T01:58:16;-4.00;84.60
67769;DHT22;54569;52.018;5.584;2022-12-18T02:00:42;-4.10;84.80
67769;DHT22;54569;52.018;5.584;2022-12-18T02:03:08;-4.10;84.60
67769;DHT22;54569;52.018;5.584;2022-12-18T02:05:44;-4.10;84.50
67769;DHT22;54569;52.018;5.584;2022-12-18T02:13:46;-4.10;84.20
67769;DHT22;54569;52.018;5.584;2022-12-18T02:18:58;-4.20;84.30
67769;DHT22;54569;52.018;5.584;2022-12-18T02:25:05;-4.20;84.00
67769;DHT22;54569;52.018;5.584;2022-12-18T02:27:39;-4.20;84.20
67769;DHT22;54569;52.018;5.584;2022-12-18T02:30:07;-4.30;83.90
67769;DHT22;54569;52.018;5.584;2022-12-18T02:32:42;-4.20;84.00
67769;DHT22;54569;52.018;5.584;2022-12-18T02:35:12;-4.20;83.90
67769;DHT22;54569;52.018;5.584;2022-12-18T02:37:43;-4.20;83.80
67769;DHT22;54569;52.018;5.584;2022-12-18T02:40:11;-4.20;84.00
67769;DHT22;54569;52.018;5.584;2022-12-18T02:42:37;-4.30;83.70
67769;DHT22;54569;52.018;5.584;2022-12-18T02:45:06;-4.30;83.70
67769;DHT22;54569;52.018;5.584;2022-12-18T02:47:37;-4.30;83.80
67769;DHT22;54569;52.018;5.584;2022-12-18T02:55:29;-4.30;83.50
67769;DHT22;54569;52.018;5.584;2022-12-18T02:58:11;-4.30;83.50
67769;DHT22;54569;52.018;5.584;2022-12-18T03:00:51;-4.40;83.40
67769;DHT22;54569;52.018;5.584;2022-12-18T03:03:33;-4.40;83.20
67769;DHT22;54569;52.018;5.584;2022-12-18T03:08:52;-4.50;83.60
67769;DHT22;54569;52.018;5.584;2022-12-18T03:11:19;-4.50;83.90
67769;DHT22;54569;52.018;5.584;2022-12-18T03:14:07;-4.50;84.00
67769;DHT22;54569;52.018;5.584;2022-12-18T03:16:34;-4.50;84.00
67769;DHT22;54569;52.018;5.584;2022-12-18T03:19:11;-4.50;84.00
67769;DHT22;54569;52.018;5.584;2022-12-18T03:21:49;-4.50;85.00
67769;DHT22;54569;52.018;5.584;2022-12-18T03:24:17;-4.50;84.30
67769;DHT22;54569;52.018;5.584;2022-12-18T03:26:47;-4.50;84.40
67769;DHT22;54569;52.018;5.584;2022-12-18T03:29:27;-4.50;84.20
67769;DHT22;54569;52.018;5.584;2022-12-18T03:32:02;-4.50;84.00
67769;DHT22;54569;52.018;5.584;2022-12-18T03:34:34;-4.50;84.00
67769;DHT22;54569;52.018;5.584;2022-12-18T03:37:05;-4.50;83.90
67769;DHT22;54569;52.018;5.584;2022-12-18T03:39:33;-4.50;84.00
67769;DHT22;54569;52.018;5.584;2022-12-18T03:42:10;-4.50;83.90
67769;DHT22;54569;52.018;5.584;2022-12-18T03:45:01;-4.50;83.90
67769;DHT22;54569;52.018;5.584;2022-12-18T03:48:16;-4.50;83.90
67769;DHT22;54569;52.018;5.584;2022-12-18T03:50:56;-4.50;83.90
67769;DHT22;54569;52.018;5.584;2022-12-18T03:55:52;-4.50;83.80
67769;DHT22;54569;52.018;5.584;2022-12-18T03:58:23;-4.50;83.70
67769;DHT22;54569;52.018;5.584;2022-12-18T04:01:00;-4.50;83.60
67769;DHT22;54569;52.018;5.584;2022-12-18T04:03:28;-4.40;83.50
67769;DHT22;54569;52.018;5.584;2022-12-18T04:05:57;-4.50;83.30
67769;DHT22;54569;52.018;5.584;2022-12-18T04:08:26;-4.50;83.30
67769;DHT22;54569;52.018;5.584;2022-12-18T04:11:02;-4.50;83.40
67769;DHT22;54569;52.018;5.584;2022-12-18T04:13:31;-4.50;83.40
67769;DHT22;54569;52.018;5.584;2022-12-18T04:15:58;-4.50;83.50
67769;DHT22;54569;52.018;5.584;2022-12-18T04:18:24;-4.60;83.30
67769;DHT22;54569;52.018;5.584;2022-12-18T04:20:50;-4.60;83.20
67769;DHT22;54569;52.018;5.584;2022-12-18T04:23:17;-4.60;83.30
67769;DHT22;54569;52.018;5.584;2022-12-18T04:25:43;-4.60;83.10
67769;DHT22;54569;52.018;5.584;2022-12-18T04:28:13;-4.60;83.10
67769;DHT22;54569;52.018;5.584;2022-12-18T04:30:40;-4.60;83.20
67769;DHT22;54569;52.018;5.584;2022-12-18T04:33:10;-4.60;83.00
67769;DHT22;54569;52.018;5.584;2022-12-18T04:35:38;-4.70;82.90
67769;DHT22;54569;52.018;5.584;2022-12-18T04:38:05;-4.70;83.00
67769;DHT22;54569;52.018;5.584;2022-12-18T04:40:32;-4.70;83.00
67769;DHT22;54569;52.018;5.584;2022-12-18T04:43:04;-4.70;83.10
67769;DHT22;54569;52.018;5.584;2022-12-18T04:45:30;-4.70;83.20
67769;DHT22;54569;52.018;5.584;2022-12-18T04:48:00;-4.70;83.20
67769;DHT22;54569;52.018;5.584;2022-12-18T04:50:26;-4.70;83.30
67769;DHT22;54569;52.018;5.584;2022-12-18T04:52:52;-4.70;83.40
67769;DHT22;54569;52.018;5.584;2022-12-18T04:55:18;-4.70;83.30
67769;DHT22;54569;52.018;5.584;2022-12-18T04:57:44;-4.70;83.40
67769;DHT22;54569;52.018;5.584;2022-12-18T05:00:11;-4.70;83.40
67769;DHT22;54569;52.018;5.584;2022-12-18T05:02:36;-4.70;83.40
67769;DHT22;54569;52.018;5.584;2022-12-18T05:05:03;-4.60;83.40
67769;DHT22;54569;52.018;5.584;2022-12-18T05:07:28;-4.70;83.20
67769;DHT22;54569;52.018;5.584;2022-12-18T05:09:54;-4.70;83.20
67769;DHT22;54569;52.018;5.584;2022-12-18T05:12:19;-4.60;83.30
67769;DHT22;54569;52.018;5.584;2022-12-18T05:14:49;-4.60;83.20
67769;DHT22;54569;52.018;5.584;2022-12-18T05:17:15;-4.60;83.20
67769;DHT22;54569;52.018;5.584;2022-12-18T05:19:41;-4.60;83.10
67769;DHT22;54569;52.018;5.584;2022-12-18T05:22:06;-4.60;83.10
67769;DHT22;54569;52.018;5.584;2022-12-18T05:24:32;-4.60;83.10
67769;DHT22;54569;52.018;5.584;2022-12-18T05:26:58;-4.60;83.10
67769;DHT22;54569;52.018;5.584;2022-12-18T05:29:23;-4.60;83.40
67769;DHT22;54569;52.018;5.584;2022-12-18T05:31:49;-4.60;83.40
67769;DHT22;54569;52.018;5.584;2022-12-18T05:34:15;-4.60;83.30
67769;DHT22;54569;52.018;5.584;2022-12-18T05:36:41;-4.60;83.10
67769;DHT22;54569;52.018;5.584;2022-12-18T05:39:06;-4.60;83.20
67769;DHT22;54569;52.018;5.584;2022-12-18T05:41:32;-4.70;83.10
67769;DHT22;54569;52.018;5.584;2022-12-18T05:43:58;-4.70;83.10
67769;DHT22;54569;52.018;5.584;2022-12-18T05:46:24;-4.70;82.90
67769;DHT22;54569;52.018;5.584;2022-12-18T05:48:50;-4.70;82.40
67769;DHT22;54569;52.018;5.584;2022-12-18T05:51:18;-4.80;82.20
67769;DHT22;54569;52.018;5.584;2022-12-18T05:53:44;-4.90;82.40
67769;DHT22;54569;52.018;5.584;2022-12-18T05:56:13;-4.90;82.60
67769;DHT22;54569;52.018;5.584;2022-12-18T05:58:40;-5.00;82.60
67769;DHT22;54569;52.018;5.584;2022-12-18T06:01:11;-5.00;82.70
67769;DHT22;54569;52.018;5.584;2022-12-18T06:03:37;-5.00;82.70
67769;DHT22;54569;52.018;5.584;2022-12-18T06:06:03;-5.00;82.80
67769;DHT22;54569;52.018;5.584;2022-12-18T06:08:29;-5.00;82.90
67769;DHT22;54569;52.018;5.584;2022-12-18T06:10:55;-5.00;82.90
67769;DHT22;54569;52.018;5.584;2022-12-18T06:13:21;-5.00;83.00
67769;DHT22;54569;52.018;5.584;2022-12-18T06:15:46;-4.90;83.00
67769;DHT22;54569;52.018;5.584;2022-12-18T06:18:12;-4.90;83.00
67769;DHT22;54569;52.018;5.584;2022-12-18T06:20:38;-4.90;83.00
67769;DHT22;54569;52.018;5.584;2022-12-18T06:23:05;-5.00;82.90
67769;DHT22;54569;52.018;5.584;2022-12-18T06:25:32;-5.00;82.90
67769;DHT22;54569;52.018;5.584;2022-12-18T06:27:58;-4.90;83.00
67769;DHT22;54569;52.018;5.584;2022-12-18T06:30:24;-4.90;83.00
67769;DHT22;54569;52.018;5.584;2022-12-18T06:32:50;-4.90;82.80
67769;DHT22;54569;52.018;5.584;2022-12-18T06:35:15;-4.90;83.00
67769;DHT22;54569;52.018;5.584;2022-12-18T06:37:41;-4.90;83.00
67769;DHT22;54569;52.018;5.584;2022-12-18T06:40:07;-5.00;83.00
67769;DHT22;54569;52.018;5.584;2022-12-18T06:42:33;-5.00;83.00
67769;DHT22;54569;52.018;5.584;2022-12-18T06:44:59;-5.00;83.00
67769;DHT22;54569;52.018;5.584;2022-12-18T06:47:24;-4.90;83.30
67769;DHT22;54569;52.018;5.584;2022-12-18T06:49:50;-4.90;83.30
67769;DHT22;54569;52.018;5.584;2022-12-18T06:52:17;-4.90;83.30
67769;DHT22;54569;52.018;5.584;2022-12-18T06:54:42;-4.90;83.30
67769;DHT22;54569;52.018;5.584;2022-12-18T06:57:08;-4.90;83.30
67769;DHT22;54569;52.018;5.584;2022-12-18T06:59:34;-4.90;83.20
67769;DHT22;54569;52.018;5.584;2022-12-18T07:01:59;-4.90;83.20
67769;DHT22;54569;52.018;5.584;2022-12-18T07:04:31;-4.90;83.20
67769;DHT22;54569;52.018;5.584;2022-12-18T07:06:57;-4.90;83.20
67769;DHT22;54569;52.018;5.584;2022-12-18T07:09:23;-4.90;83.30
67769;DHT22;54569;52.018;5.584;2022-12-18T07:11:49;-4.90;83.40
67769;DHT22;54569;52.018;5.584;2022-12-18T07:14:15;-4.90;83.30
67769;DHT22;54569;52.018;5.584;2022-12-18T07:16:40;-4.90;83.10
67769;DHT22;54569;52.018;5.584;2022-12-18T07:19:06;-4.90;83.00
67769;DHT22;54569;52.018;5.584;2022-12-18T07:21:32;-4.90;83.10
67769;DHT22;54569;52.018;5.584;2022-12-18T07:23:57;-4.90;83.00
67769;DHT22;54569;52.018;5.584;2022-12-18T07:26:23;-4.90;83.10
67769;DHT22;54569;52.018;5.584;2022-12-18T07:28:49;-5.00;83.10
67769;DHT22;54569;52.018;5.584;2022-12-18T07:31:17;-5.00;83.00
67769;DHT22;54569;52.018;5.584;2022-12-18T07:33:43;-5.00;83.00
67769;DHT22;54569;52.018;5.584;2022-12-18T07:36:10;-5.00;83.00
67769;DHT22;54569;52.018;5.584;2022-12-18T07:38:36;-4.90;83.20
67769;DHT22;54569;52.018;5.584;2022-12-18T07:41:13;-4.90;83.00
67769;DHT22;54569;52.018;5.584;2022-12-18T07:43:39;-4.80;83.60
67769;DHT22;54569;52.018;5.584;2022-12-18T07:46:06;-4.70;83.10
67769;DHT22;54569;52.018;5.584;2022-12-18T07:48:32;-4.60;82.60
67769;DHT22;54569;52.018;5.584;2022-12-18T07:51:07;-4.50;82.30
67769;DHT22;54569;52.018;5.584;2022-12-18T07:53:34;-4.40;82.00
67769;DHT22;54569;52.018;5.584;2022-12-18T07:56:05;-4.30;81.80
67769;DHT22;54569;52.018;5.584;2022-12-18T07:58:32;-4.30;81.80
67769;DHT22;54569;52.018;5.584;2022-12-18T08:01:11;-4.20;81.80
67769;DHT22;54569;52.018;5.584;2022-12-18T08:03:38;-4.10;81.70
67769;DHT22;54569;52.018;5.584;2022-12-18T08:06:06;-4.00;81.60
67769;DHT22;54569;52.018;5.584;2022-12-18T08:08:33;-3.90;81.40
67769;DHT22;54569;52.018;5.584;2022-12-18T08:10:59;-3.80;81.60
67769;DHT22;54569;52.018;5.584;2022-12-18T08:13:25;-3.70;81.20
67769;DHT22;54569;52.018;5.584;2022-12-18T08:16:03;-3.60;81.00
67769;DHT22;54569;52.018;5.584;2022-12-18T08:18:29;-3.50;80.50
67769;DHT22;54569;52.018;5.584;2022-12-18T08:20:55;-3.40;80.30
67769;DHT22;54569;52.018;5.584;2022-12-18T08:23:21;-3.30;79.90
67769;DHT22;54569;52.018;5.584;2022-12-18T08:25:47;-3.20;80.10
67769;DHT22;54569;52.018;5.584;2022-12-18T08:28:16;-3.10;80.90
67769;DHT22;54569;52.018;5.584;2022-12-18T08:30:42;-3.00;79.90
67769;DHT22;54569;52.018;5.584;2022-12-18T08:33:08;-2.90;79.20
67769;DHT22;54569;52.018;5.584;2022-12-18T08:35:37;-2.80;79.50
67769;DHT22;54569;52.018;5.584;2022-12-18T08:38:03;-2.60;79.60
67769;DHT22;54569;52.018;5.584;2022-12-18T08:40:29;-2.50;79.30
67769;DHT22;54569;52.018;5.584;2022-12-18T08:42:54;-2.40;79.00
67769;DHT22;54569;52.018;5.584;2022-12-18T08:45:46;-2.30;79.30
67769;DHT22;54569;52.018;5.584;2022-12-18T08:48:12;-2.20;79.30
67769;DHT22;54569;52.018;5.584;2022-12-18T08:50:38;-2.10;78.90
67769;DHT22;54569;52.018;5.584;2022-12-18T08:53:03;-2.00;77.90
67769;DHT22;54569;52.018;5.584;2022-12-18T08:55:29;-1.80;78.10
67769;DHT22;54569;52.018;5.584;2022-12-18T08:57:55;-1.60;78.40
67769;DHT22;54569;52.018;5.584;2022-12-18T09:00:20;-1.30;78.10
67769;DHT22;54569;52.018;5.584;2022-12-18T09:02:46;-0.80;77.80
67769;DHT22;54569;52.018;5.584;2022-12-18T09:05:12;-0.10;78.00
67769;DHT22;54569;52.018;5.584;2022-12-18T09:07:37;0.90;76.60
67769;DHT22;54569;52.018;5.584;2022-12-18T09:10:03;1.40;72.90
67769;DHT22;54569;52.018;5.584;2022-12-18T09:12:29;1.50;71.80
67769;DHT22;54569;52.018;5.584;2022-12-18T09:14:55;1.60;72.00
67769;DHT22;54569;52.018;5.584;2022-12-18T09:17:21;1.60;71.60
67769;DHT22;54569;52.018;5.584;2022-12-18T09:19:47;1.50;71.60
67769;DHT22;54569;52.018;5.584;2022-12-18T09:22:13;1.40;71.90
67769;DHT22;54569;52.018;5.584;2022-12-18T09:24:39;1.20;71.70
67769;DHT22;54569;52.018;5.584;2022-12-18T09:27:04;1.00;72.80
67769;DHT22;54569;52.018;5.584;2022-12-18T09:29:30;1.00;73.00
67769;DHT22;54569;52.018;5.584;2022-12-18T09:31:56;0.90;72.70
67769;DHT22;54569;52.018;5.584;2022-12-18T09:34:21;0.80;73.20
67769;DHT22;54569;52.018;5.584;2022-12-18T09:36:47;0.60;73.70
67769;DHT22;54569;52.018;5.584;2022-12-18T09:39:13;0.60;74.30
67769;DHT22;54569;52.018;5.584;2022-12-18T09:41:46;0.50;74.30
67769;DHT22;54569;52.018;5.584;2022-12-18T09:44:28;0.50;74.50
67769;DHT22;54569;52.018;5.584;2022-12-18T09:47:07;0.50;74.80
67769;DHT22;54569;52.018;5.584;2022-12-18T09:49:40;0.50;74.90
67769;DHT22;54569;52.018;5.584;2022-12-18T09:55:03;0.30;74.50
67769;DHT22;54569;52.018;5.584;2022-12-18T09:57:33;0.30;75.10
67769;DHT22;54569;52.018;5.584;2022-12-18T10:00:19;0.10;75.00
67769;DHT22;54569;52.018;5.584;2022-12-18T10:02:46;0.00;75.30
67769;DHT22;54569;52.018;5.584;2022-12-18T10:05:35;-0.10;75.60
67769;DHT22;54569;52.018;5.584;2022-12-18T10:08:09;-0.20;75.80
67769;DHT22;54569;52.018;5.584;2022-12-18T10:10:47;-0.20;76.00
67769;DHT22;54569;52.018;5.584;2022-12-18T10:16:15;-0.20;76.20
67769;DHT22;54569;52.018;5.584;2022-12-18T10:19:06;-0.20;76.00
67769;DHT22;54569;52.018;5.584;2022-12-18T10:21:45;-0.20;75.90
67769;DHT22;54569;52.018;5.584;2022-12-18T10:27:10;-0.10;75.90
67769;DHT22;54569;52.018;5.584;2022-12-18T10:29:38;-0.10;75.80
67769;DHT22;54569;52.018;5.584;2022-12-18T10:32:03;-0.20;75.60
67769;DHT22;54569;52.018;5.584;2022-12-18T10:34:29;-0.20;75.70
67769;DHT22;54569;52.018;5.584;2022-12-18T10:36:55;-0.10;75.80
67769;DHT22;54569;52.018;5.584;2022-12-18T10:39:23;-0.20;75.60
67769;DHT22;54569;52.018;5.584;2022-12-18T10:41:52;-0.20;75.80
67769;DHT22;54569;52.018;5.584;2022-12-18T10:44:27;-0.30;75.90
67769;DHT22;54569;52.018;5.584;2022-12-18T10:47:03;-0.30;76.00
67769;DHT22;54569;52.018;5.584;2022-12-18T10:49:33;-0.30;76.10
67769;DHT22;54569;52.018;5.584;2022-12-18T10:52:23;-0.30;76.10
67769;DHT22;54569;52.018;5.584;2022-12-18T10:54:53;-0.30;76.10
67769;DHT22;54569;52.018;5.584;2022-12-18T10:59:57;-0.30;76.00
67769;DHT22;54569;52.018;5.584;2022-12-18T11:02:43;-0.40;75.90
67769;DHT22;54569;52.018;5.584;2022-12-18T11:05:28;-0.40;76.20
67769;DHT22;54569;52.018;5.584;2022-12-18T11:07:55;-0.30;76.10
67769;DHT22;54569;52.018;5.584;2022-12-18T11:10:26;-0.40;75.90
67769;DHT22;54569;52.018;5.584;2022-12-18T11:12:53;-0.30;76.10
67769;DHT22;54569;52.018;5.584;2022-12-18T11:15:27;-0.30;76.10
67769;DHT22;54569;52.018;5.584;2022-12-18T11:17:55;-0.30;76.00
67769;DHT22;54569;52.018;5.584;2022-12-18T11:20:34;-0.30;75.90
67769;DHT22;54569;52.018;5.584;2022-12-18T11:23:04;-0.20;76.10
67769;DHT22;54569;52.018;5.584;2022-12-18T11:25:32;-0.20;76.00
67769;DHT22;54569;52.018;5.584;2022-12-18T11:28:52;-0.20;75.90
67769;DHT22;54569;52.018;5.584;2022-12-18T11:31:26;-0.20;75.60
67769;DHT22;54569;52.018;5.584;2022-12-18T11:34:15;-0.20;75.90
67769;DHT22;54569;52.018;5.584;2022-12-18T11:36:45;-0.10;75.90
67769;DHT22;54569;52.018;5.584;2022-12-18T11:39:36;-0.10;75.80
67769;DHT22;54569;52.018;5.584;2022-12-18T11:42:38;0.00;75.70
67769;DHT22;54569;52.018;5.584;2022-12-18T11:50:44;0.10;75.50
67769;DHT22;54569;52.018;5.584;2022-12-18T11:53:12;0.10;75.40
67769;DHT22;54569;52.018;5.584;2022-12-18T11:56:03;0.20;75.40
67769;DHT22;54569;52.018;5.584;2022-12-18T12:01:47;0.30;75.50
67769;DHT22;54569;52.018;5.584;2022-12-18T12:12:26;0.30;75.60
67769;DHT22;54569;52.018;5.584;2022-12-18T12:15:46;0.30;75.60
67769;DHT22;54569;52.018;5.584;2022-12-18T12:18:23;0.30;75.50
67769;DHT22;54569;52.018;5.584;2022-12-18T12:21:01;0.30;75.60
67769;DHT22;54569;52.018;5.584;2022-12-18T12:29:29;0.40;75.80
67769;DHT22;54569;52.018;5.584;2022-12-18T12:32:11;0.40;75.80
67769;DHT22;54569;52.018;5.584;2022-12-18T12:38:10;0.50;75.70
67769;DHT22;54569;52.018;5.584;2022-12-18T12:41:13;0.50;75.60
67769;DHT22;54569;52.018;5.584;2022-12-18T12:43:52;0.50;75.80
67769;DHT22;54569;52.018;5.584;2022-12-18T12:46:22;0.50;75.70
67769;DHT22;54569;52.018;5.584;2022-12-18T12:48:55;0.50;75.60
67769;DHT22;54569;52.018;5.584;2022-12-18T12:51:27;0.50;75.70
67769;DHT22;54569;52.018;5.584;2022-12-18T12:53:55;0.50;75.60
67769;DHT22;54569;52.018;5.584;2022-12-18T12:56:22;0.50;75.70
67769;DHT22;54569;52.018;5.584;2022-12-18T12:59:20;0.50;75.70
67769;DHT22;54569;52.018;5.584;2022-12-18T13:13:11;0.60;75.30
67769;DHT22;54569;52.018;5.584;2022-12-18T13:16:06;0.60;75.30
67769;DHT22;54569;52.018;5.584;2022-12-18T13:18:32;0.60;75.90
67769;DHT22;54569;52.018;5.584;2022-12-18T13:34:22;0.70;75.30
67769;DHT22;54569;52.018;5.584;2022-12-18T13:36:49;0.60;75.20
67769;DHT22;54569;52.018;5.584;2022-12-18T13:42:34;0.60;75.10
67769;DHT22;54569;52.018;5.584;2022-12-18T13:44:57;0.60;75.70
67769;DHT22;54569;52.018;5.584;2022-12-18T13:47:32;0.60;75.10
67769;DHT22;54569;52.018;5.584;2022-12-18T13:50:00;0.60;75.10
67769;DHT22;54569;52.018;5.584;2022-12-18T13:52:36;0.70;75.20
67769;DHT22;54569;52.018;5.584;2022-12-18T13:55:06;0.70;75.20
67769;DHT22;54569;52.018;5.584;2022-12-18T13:57:35;0.70;75.10
67769;DHT22;54569;52.018;5.584;2022-12-18T14:02:48;0.70;75.00
67769;DHT22;54569;52.018;5.584;2022-12-18T14:05:26;0.70;74.90
67769;DHT22;54569;52.018;5.584;2022-12-18T14:07:54;0.70;75.00
67769;DHT22;54569;52.018;5.584;2022-12-18T14:10:21;0.70;74.90
67769;DHT22;54569;52.018;5.584;2022-12-18T14:12:49;0.70;74.90
67769;DHT22;54569;52.018;5.584;2022-12-18T14:15:32;0.70;74.90
67769;DHT22;54569;52.018;5.584;2022-12-18T14:18:00;0.80;74.90
67769;DHT22;54569;52.018;5.584;2022-12-18T14:20:29;0.80;74.60
67769;DHT22;54569;52.018;5.584;2022-12-18T14:22:56;0.70;74.70
67769;DHT22;54569;52.018;5.584;2022-12-18T14:25:24;0.70;74.70
67769;DHT22;54569;52.018;5.584;2022-12-18T14:33:15;0.70;74.30
67769;DHT22;54569;52.018;5.584;2022-12-18T14:35:56;0.70;74.30
67769;DHT22;54569;52.018;5.584;2022-12-18T14:38:23;0.70;74.10
67769;DHT22;54569;52.018;5.584;2022-12-18T14:43:26;0.70;74.50
67769;DHT22;54569;52.018;5.584;2022-12-18T14:45:52;0.70;74.50
67769;DHT22;54569;52.018;5.584;2022-12-18T14:48:34;0.70;74.60
67769;DHT22;54569;52.018;5.584;2022-12-18T14:51:06;0.70;74.40
67769;DHT22;54569;52.018;5.584;2022-12-18T14:53:36;0.70;74.60
67769;DHT22;54569;52.018;5.584;2022-12-18T14:56:03;0.70;74.60
67769;DHT22;54569;52.018;5.584;2022-12-18T14:58:29;0.70;74.80
67769;DHT22;54569;52.018;5.584;2022-12-18T15:00:55;0.70;75.00
67769;DHT22;54569;52.018;5.584;2022-12-18T15:03:21;0.70;74.90
67769;DHT22;54569;52.018;5.584;2022-12-18T15:05:47;0.60;74.80
67769;DHT22;54569;52.018;5.584;2022-12-18T15:08:36;0.60;75.00
67769;DHT22;54569;52.018;5.584;2022-12-18T15:11:03;0.60;75.00
67769;DHT22;54569;52.018;5.584;2022-12-18T15:13:29;0.60;74.90
67769;DHT22;54569;52.018;5.584;2022-12-18T15:15:57;0.60;75.10
67769;DHT22;54569;52.018;5.584;2022-12-18T15:18:30;0.60;75.00
67769;DHT22;54569;52.018;5.584;2022-12-18T15:20:59;0.60;75.10
67769;DHT22;54569;52.018;5.584;2022-12-18T15:23:47;0.60;75.30
67769;DHT22;54569;52.018;5.584;2022-12-18T15:26:15;0.60;75.30
67769;DHT22;54569;52.018;5.584;2022-12-18T15:28:53;0.60;75.20
67769;DHT22;54569;52.018;5.584;2022-12-18T15:31:34;0.50;75.30
67769;DHT22;54569;52.018;5.584;2022-12-18T15:34:19;0.50;75.40
67769;DHT22;54569;52.018;5.584;2022-12-18T15:36:46;0.60;75.40
67769;DHT22;54569;52.018;5.584;2022-12-18T15:39:12;0.50;75.30
67769;DHT22;54569;52.018;5.584;2022-12-18T15:41:38;0.50;75.20
67769;DHT22;54569;52.018;5.584;2022-12-18T15:44:22;0.50;75.20
67769;DHT22;54569;52.018;5.584;2022-12-18T15:46:48;0.50;75.00
67769;DHT22;54569;52.018;5.584;2022-12-18T15:49:14;0.50;75.00
67769;DHT22;54569;52.018;5.584;2022-12-18T15:51:39;0.50;75.10
67769;DHT22;54569;52.018;5.584;2022-12-18T15:54:08;0.50;74.90
67769;DHT22;54569;52.018;5.584;2022-12-18T15:56:34;0.50;75.10
67769;DHT22;54569;52.018;5.584;2022-12-18T15:59:20;0.50;74.90
67769;DHT22;54569;52.018;5.584;2022-12-18T16:01:48;0.50;75.00
67769;DHT22;54569;52.018;5.584;2022-12-18T16:04:16;0.50;75.00
67769;DHT22;54569;52.018;5.584;2022-12-18T16:06:42;0.50;75.00
67769;DHT22;54569;52.018;5.584;2022-12-18T16:09:08;0.50;75.10
67769;DHT22;54569;52.018;5.584;2022-12-18T16:11:35;0.50;75.10
67769;DHT22;54569;52.018;5.584;2022-12-18T16:14:24;0.50;75.10
67769;DHT22;54569;52.018;5.584;2022-12-18T16:16:55;0.50;75.20
67769;DHT22;54569;52.018;5.584;2022-12-18T16:19:21;0.50;75.30
67769;DHT22;54569;52.018;5.584;2022-12-18T16:21:48;0.50;75.10
67769;DHT22;54569;52.018;5.584;2022-12-18T16:24:20;0.50;75.10
67769;DHT22;54569;52.018;5.584;2022-12-18T16:26:49;0.50;74.90
67769;DHT22;54569;52.018;5.584;2022-12-18T16:29:17;0.40;74.60
67769;DHT22;54569;52.018;5.584;2022-12-18T16:31:44;0.50;75.50
67769;DHT22;54569;52.018;5.584;2022-12-18T16:36:52;0.50;74.80
67769;DHT22;54569;52.018;5.584;2022-12-18T16:39:19;0.50;74.50
67769;DHT22;54569;52.018;5.584;2022-12-18T16:41:45;0.50;74.20
67769;DHT22;54569;52.018;5.584;2022-12-18T16:44:11;0.50;74.20
67769;DHT22;54569;52.018;5.584;2022-12-18T16:46:38;0.50;74.10
67769;DHT22;54569;52.018;5.584;2022-12-18T16:49:04;0.50;74.30
67769;DHT22;54569;52.018;5.584;2022-12-18T16:51:30;0.50;74.20
67769;DHT22;54569;52.018;5.584;2022-12-18T16:53:59;0.50;74.20
67769;DHT22;54569;52.018;5.584;2022-12-18T16:56:25;0.50;74.50
67769;DHT22;54569;52.018;5.584;2022-12-18T16:58:52;0.50;74.40
67769;DHT22;54569;52.018;5.584;2022-12-18T17:01:19;0.50;74.30
67769;DHT22;54569;52.018;5.584;2022-12-18T17:03:54;0.50;74.50
67769;DHT22;54569;52.018;5.584;2022-12-18T17:06:22;0.50;74.50
67769;DHT22;54569;52.018;5.584;2022-12-18T17:08:54;0.50;74.00
67769;DHT22;54569;52.018;5.584;2022-12-18T17:11:20;0.50;74.40
67769;DHT22;54569;52.018;5.584;2022-12-18T17:13:46;0.50;74.50
67769;DHT22;54569;52.018;5.584;2022-12-18T17:16:11;0.50;74.40
67769;DHT22;54569;52.018;5.584;2022-12-18T17:18:37;0.50;74.30
67769;DHT22;54569;52.018;5.584;2022-12-18T17:21:05;0.50;74.20
67769;DHT22;54569;52.018;5.584;2022-12-18T17:23:31;0.50;74.50
67769;DHT22;54569;52.018;5.584;2022-12-18T17:25:58;0.50;74.50
67769;DHT22;54569;52.018;5.584;2022-12-18T17:28:25;0.50;74.30
67769;DHT22;54569;52.018;5.584;2022-12-18T17:30:52;0.50;74.20
67769;DHT22;54569;52.018;5.584;2022-12-18T17:33:18;0.50;74.40
67769;DHT22;54569;52.018;5.584;2022-12-18T17:35:44;0.50;74.20
67769;DHT22;54569;52.018;5.584;2022-12-18T17:38:10;0.50;74.00
67769;DHT22;54569;52.018;5.584;2022-12-18T17:40:36;0.50;74.20
67769;DHT22;54569;52.018;5.584;2022-12-18T17:43:01;0.50;74.30